Archival Weather

Snohomish County (Paine Fld)

Everett, Washington (KPAE)

Report from: Sunday, November 19, 2023 2:53 PM PST
Current time: Monday, June 17, 2024 1:39 AM PDT

Current weather – Weather history – Daily summaries
Weather forecast

Present weatherRain
Temperature7.8°C (46.0°F)
Wind chill6.2°C (43.1°F)
Dew point3.3°C (37.9°F)
Winds 5 kts (2.6 m/s, 5.8 mph) West-Southwest (250°)
Visibility10 mi. (16.1 km)
Clouds Scattered clouds 3,300 ft. (1,006 m)
Ceiling: Overcast 4,100 ft. (1,250 m)
Altimeter30.38 in.Hg (1029 mB)
Precipitiation0.03 in. (1 mm)
Precip. events Rain began 10:06 PM
Relative humidity73 %
Density altitude-1,279 ft. (-390 m)
Sea-level pressure102.9 kPa (1029 mB, 30.38 in.Hg)
Remarks Corrected report
Automated weather observing station with precipitation discriminator
Flight conditions Visual Meteorological Conditions
Raw dataKPAE 192253Z COR 25005KT 10SM RA SCT033 OVC041 08/03 A3038 RMK AO2 RAB06 SLP289 P0003 T00780033
An error has occurred. This application may no longer respond until reloaded. Reload 🗙